• Join FlightAware (Why Join?)
  • Login
  • US Flag 
10:07AM EDT


 

Airport Tracker/Info


-or-


 

Live Flight TrackerFlight Track Log ✈ N680AN ✈ 04-May-2013 ✈ KMIA - KMCO

Flight Track Log - Related Links

Times and Time Zones

All times are in EDT time to prevent confusion due to time zone crossing. See the N680AN flight status page for this flight to view local times or setup timezone preferences in your user account.

Time Position Orientation Groundspeed Altitude Reporting Facility
EDT Latitude Longitude Course Direction KTS MPH feet Rate Location/Type
04:39PM 25.7975 -80.3022 North 179 206 800  Level Miami Center
04:40PM 25.8031 -80.3322 282° West 159 183 2,600 2,700 Climbing Miami Center
04:41PM 25.9487 -80.3329 343° North  Level FlightAware Approximate
04:41PM 25.8264 -80.4022 290° West 246 283 5,500  Level Miami Center
04:42PM 26.0300 -80.3653 340° North  Level FlightAware Approximate
04:42PM 25.9094 -80.4256 346° North 259 298 9,300  Level Miami Center
04:43PM 26.1127 -80.3931 343° North  Level FlightAware Approximate
04:43PM 25.9908 -80.4325 356° North 264 304 11,600  Level Miami Center
04:44PM 26.1960 -80.4167 North  Level FlightAware Approximate
04:44PM 26.0869 -80.4283 North 306 352 14,500  Level Miami Center
04:45PM 26.1872 -80.4267 North 335 386 16,400 1,200 Climbing Miami Center
04:46PM 26.2764 -80.4481 348° North 352 405 17,000 300 Climbing Miami Center
04:47PM 26.3842 -80.4883 341° North 359 413 17,000  Level Miami Center
04:48PM 26.4708 -80.5236 340° North 364 419 17,000  Level Miami Center
04:49PM 26.5764 -80.5664 340° North 370 426 17,000  Level Miami Center
04:50PM 26.6653 -80.6017 340° North 370 426 17,000  Level Miami Center
04:51PM 26.7686 -80.6422 341° North 365 420 17,000  Level Miami Center
04:52PM 26.8658 -80.6778 342° North 371 427 17,000  Level Miami Center
04:53PM 26.9525 -80.7133 340° North 371 427 17,000  Level Miami Center
04:54PM 27.0622 -80.7567 341° North 365 420 17,000  Level Miami Center
04:55PM 27.1572 -80.7947 340° North 365 420 17,000  Level Miami Center
04:56PM 27.2522 -80.8331 340° North 365 420 17,000  Level Miami Center
04:57PM 27.3469 -80.8739 339° North 365 420 17,000  Level Miami Center
04:58PM 27.4419 -80.9097 341° North 365 420 17,000  Level Miami Center
04:59PM 27.5369 -80.9483 340° North 365 420 17,000  Level Miami Center
05:00PM 27.6339 -80.9869 341° North 365 420 17,000 -540 Level Miami Center
05:01PM 27.7247 -81.0231 341° North 365 420 16,000 -1,500 Descending Miami Center
05:02PM 27.8197 -81.0617 340° North 359 413 14,000 -1,920 Descending Miami Center
05:04PM 27.9667 -81.1167 342° North 315 362 11,000 -1,140 Descending Orlando TRACON
05:05PM 28.0500 -81.1500 341° North 287 330 11,000 -300 Level Orlando TRACON
05:06PM 28.1167 -81.1667 348° North 279 321 10,400 -960 Descending Orlando TRACON
05:06PM 28.1833 -81.1833 348° North 279 321 9,200 -780 Descending Orlando TRACON
05:07PM 28.2667 -81.1833 360° North 274 315 9,000 -120 Descending Orlando TRACON
05:08PM 28.3333 -81.1833 360° North 277 319 9,000 -240 Level Orlando TRACON
05:09PM 28.4167 -81.1833 360° North 250 288 8,600 -840 Descending Orlando TRACON
05:11PM 28.4833 -81.1833 360° North 238 274 7,300 -1,620 Descending Orlando TRACON
05:11PM 28.5500 -81.1833 360° North 239 275 5,400 -2,160 Descending Orlando TRACON